sensor_id;sensor_type;location;lat;lon;timestamp;pressure;altitude;pressure_sealevel;temperature;humidity
3434;BME280;1730;41.932;25.548;2022-09-09T00:00:54;99303.72;;;19.66;100.00
3434;BME280;1730;41.932;25.548;2022-09-09T00:03:32;99292.09;;;19.84;100.00
3434;BME280;1730;41.932;25.548;2022-09-09T00:06:08;99277.16;;;19.80;100.00
3434;BME280;1730;41.932;25.548;2022-09-09T00:11:05;99349.81;;;19.69;100.00
3434;BME280;1730;41.932;25.548;2022-09-09T00:13:38;99356.13;;;19.63;100.00
3434;BME280;1730;41.932;25.548;2022-09-09T00:16:27;99327.31;;;19.74;100.00
3434;BME280;1730;41.932;25.548;2022-09-09T00:22:04;99351.06;;;19.67;100.00
3434;BME280;1730;41.932;25.548;2022-09-09T00:24:43;99333.41;;;19.50;100.00
3434;BME280;1730;41.932;25.548;2022-09-09T00:27:26;98873.50;;;17.14;100.00
3434;BME280;1730;41.932;25.548;2022-09-09T00:30:00;98995.34;;;17.40;100.00
3434;BME280;1730;41.932;25.548;2022-09-09T00:32:33;99343.84;;;20.05;100.00
3434;BME280;1730;41.932;25.548;2022-09-09T00:35:16;99316.13;;;19.82;100.00
3434;BME280;1730;41.932;25.548;2022-09-09T00:37:46;98905.75;;;17.04;100.00
3434;BME280;1730;41.932;25.548;2022-09-09T00:52:02;99345.41;;;19.55;100.00
3434;BME280;1730;41.932;25.548;2022-09-09T00:54:40;99333.59;;;19.15;100.00
3434;BME280;1730;41.932;25.548;2022-09-09T00:57:32;99336.97;;;19.17;100.00
3434;BME280;1730;41.932;25.548;2022-09-09T01:01:00;99303.72;;;19.01;100.00
3434;BME280;1730;41.932;25.548;2022-09-09T01:08:48;99341.38;;;19.25;100.00
3434;BME280;1730;41.932;25.548;2022-09-09T01:11:32;99429.44;;;18.94;100.00
3434;BME280;1730;41.932;25.548;2022-09-09T01:16:48;99420.09;;;18.34;100.00
3434;BME280;1730;41.932;25.548;2022-09-09T01:19:24;99354.28;;;18.57;100.00
3434;BME280;1730;41.932;25.548;2022-09-09T01:22:33;98911.41;;;15.37;100.00
3434;BME280;1730;41.932;25.548;2022-09-09T01:28:20;99434.38;;;18.64;100.00
3434;BME280;1730;41.932;25.548;2022-09-09T01:30:49;98941.75;;;15.83;100.00
3434;BME280;1730;41.932;25.548;2022-09-09T01:33:21;99358.94;;;18.70;100.00
3434;BME280;1730;41.932;25.548;2022-09-09T01:35:52;98942.00;;;15.67;100.00
3434;BME280;1730;41.932;25.548;2022-09-09T01:38:39;99366.78;;;18.38;100.00
3434;BME280;1730;41.932;25.548;2022-09-09T01:41:15;99356.25;;;18.35;100.00
3434;BME280;1730;41.932;25.548;2022-09-09T01:43:43;98620.03;;;13.24;100.00
3434;BME280;1730;41.932;25.548;2022-09-09T01:49:41;98935.59;;;15.11;100.00
3434;BME280;1730;41.932;25.548;2022-09-09T01:52:11;99361.34;;;18.04;100.00
3434;BME280;1730;41.932;25.548;2022-09-09T01:54:39;99353.56;;;18.01;100.00
3434;BME280;1730;41.932;25.548;2022-09-09T02:00:10;99421.94;;;17.93;100.00
3434;BME280;1730;41.932;25.548;2022-09-09T02:05:56;99414.47;;;18.08;100.00
3434;BME280;1730;41.932;25.548;2022-09-09T02:08:48;99376.09;;;17.82;100.00
3434;BME280;1730;41.932;25.548;2022-09-09T02:11:22;98691.66;;;13.51;100.00
3434;BME280;1730;41.932;25.548;2022-09-09T02:13:51;99379.19;;;17.72;100.00
3434;BME280;1730;41.932;25.548;2022-09-09T02:16:25;99382.19;;;17.84;100.00
3434;BME280;1730;41.932;25.548;2022-09-09T02:21:39;99473.31;;;17.47;100.00
3434;BME280;1730;41.932;25.548;2022-09-09T02:24:24;99393.50;;;17.32;100.00
3434;BME280;1730;41.932;25.548;2022-09-09T02:26:59;99403.41;;;17.39;100.00
3434;BME280;1730;41.932;25.548;2022-09-09T02:29:41;99404.91;;;17.21;100.00
3434;BME280;1730;41.932;25.548;2022-09-09T02:32:14;99397.25;;;17.09;100.00
3434;BME280;1730;41.932;25.548;2022-09-09T02:34:49;99421.66;;;16.96;100.00
3434;BME280;1730;41.932;25.548;2022-09-09T02:37:19;99416.50;;;16.87;100.00
3434;BME280;1730;41.932;25.548;2022-09-09T02:39:46;99392.06;;;16.93;100.00
3434;BME280;1730;41.932;25.548;2022-09-09T02:42:12;99392.00;;;16.87;100.00
3434;BME280;1730;41.932;25.548;2022-09-09T02:44:41;99403.22;;;16.98;100.00
3434;BME280;1730;41.932;25.548;2022-09-09T02:52:19;99471.19;;;16.71;100.00
3434;BME280;1730;41.932;25.548;2022-09-09T02:54:47;98601.38;;;11.96;100.00
3434;BME280;1730;41.932;25.548;2022-09-09T02:57:26;99381.22;;;16.79;100.00
3434;BME280;1730;41.932;25.548;2022-09-09T02:59:53;99387.28;;;16.81;100.00
3434;BME280;1730;41.932;25.548;2022-09-09T03:02:23;99383.91;;;16.93;100.00
3434;BME280;1730;41.932;25.548;2022-09-09T03:04:49;99385.66;;;17.01;100.00
3434;BME280;1730;41.932;25.548;2022-09-09T03:07:20;99392.72;;;16.95;100.00
3434;BME280;1730;41.932;25.548;2022-09-09T03:09:46;99382.66;;;16.96;100.00
3434;BME280;1730;41.932;25.548;2022-09-09T03:12:13;99380.78;;;16.60;100.00
3434;BME280;1730;41.932;25.548;2022-09-09T03:14:39;99405.69;;;16.57;100.00
3434;BME280;1730;41.932;25.548;2022-09-09T03:17:06;99400.03;;;16.59;100.00
3434;BME280;1730;41.932;25.548;2022-09-09T03:19:32;99414.69;;;16.58;100.00
3434;BME280;1730;41.932;25.548;2022-09-09T03:21:59;99396.09;;;16.47;100.00
3434;BME280;1730;41.932;25.548;2022-09-09T03:24:28;99401.34;;;16.48;100.00
3434;BME280;1730;41.932;25.548;2022-09-09T03:26:54;99410.38;;;16.49;100.00
3434;BME280;1730;41.932;25.548;2022-09-09T03:29:45;99386.34;;;16.88;100.00
3434;BME280;1730;41.932;25.548;2022-09-09T03:32:14;98672.63;;;11.95;100.00
3434;BME280;1730;41.932;25.548;2022-09-09T03:34:44;99377.38;;;16.73;100.00
3434;BME280;1730;41.932;25.548;2022-09-09T03:37:15;99384.56;;;16.81;100.00
3434;BME280;1730;41.932;25.548;2022-09-09T03:39:45;99380.06;;;16.88;100.00
3434;BME280;1730;41.932;25.548;2022-09-09T03:49:52;99403.22;;;16.33;100.00
3434;BME280;1730;41.932;25.548;2022-09-09T03:52:22;99424.63;;;16.07;100.00
3434;BME280;1730;41.932;25.548;2022-09-09T03:54:52;99440.84;;;15.86;100.00
3434;BME280;1730;41.932;25.548;2022-09-09T03:59:53;99454.16;;;15.95;100.00
3434;BME280;1730;41.932;25.548;2022-09-09T04:02:22;99458.25;;;15.76;100.00
3434;BME280;1730;41.932;25.548;2022-09-09T04:04:51;99483.56;;;15.77;100.00
3434;BME280;1730;41.932;25.548;2022-09-09T04:07:18;98712.19;;;10.85;100.00
3434;BME280;1730;41.932;25.548;2022-09-09T04:09:50;99499.72;;;15.93;100.00
3434;BME280;1730;41.932;25.548;2022-09-09T04:12:18;99483.37;;;16.01;100.00
3434;BME280;1730;41.932;25.548;2022-09-09T04:14:44;99512.00;;;16.27;100.00
3434;BME280;1730;41.932;25.548;2022-09-09T04:17:12;99496.63;;;16.48;100.00
3434;BME280;1730;41.932;25.548;2022-09-09T04:19:39;99447.66;;;16.99;100.00
3434;BME280;1730;41.932;25.548;2022-09-09T04:22:05;99432.81;;;17.23;100.00
3434;BME280;1730;41.932;25.548;2022-09-09T04:24:31;99417.34;;;17.51;100.00
3434;BME280;1730;41.932;25.548;2022-09-09T04:26:57;99420.22;;;17.85;100.00
3434;BME280;1730;41.932;25.548;2022-09-09T04:29:26;99407.25;;;18.28;100.00
3434;BME280;1730;41.932;25.548;2022-09-09T04:31:51;99407.69;;;18.25;100.00
3434;BME280;1730;41.932;25.548;2022-09-09T04:34:19;98780.47;;;14.35;100.00
3434;BME280;1730;41.932;25.548;2022-09-09T04:36:46;99397.94;;;19.11;100.00
3434;BME280;1730;41.932;25.548;2022-09-09T04:39:14;98899.44;;;15.81;100.00
3434;BME280;1730;41.932;25.548;2022-09-09T04:41:41;99398.53;;;18.94;100.00
3434;BME280;1730;41.932;25.548;2022-09-09T04:44:08;99402.44;;;19.58;100.00
3434;BME280;1730;41.932;25.548;2022-09-09T04:46:33;99388.50;;;19.20;100.00
3434;BME280;1730;41.932;25.548;2022-09-09T04:49:02;99258.66;;;18.57;100.00
3434;BME280;1730;41.932;25.548;2022-09-09T04:51:28;98805.28;;;15.66;100.00
3434;BME280;1730;41.932;25.548;2022-09-09T04:53:56;99264.16;;;18.64;100.00
3434;BME280;1730;41.932;25.548;2022-09-09T04:56:25;99402.81;;;20.01;100.00
3434;BME280;1730;41.932;25.548;2022-09-09T04:58:53;99379.62;;;20.30;100.00
3434;BME280;1730;41.932;25.548;2022-09-09T05:01:21;99386.75;;;20.44;100.00
3434;BME280;1730;41.932;25.548;2022-09-09T05:03:49;99259.69;;;19.88;100.00
3434;BME280;1730;41.932;25.548;2022-09-09T05:06:20;99236.13;;;19.87;100.00
3434;BME280;1730;41.932;25.548;2022-09-09T05:08:48;99376.59;;;20.96;100.00
3434;BME280;1730;41.932;25.548;2022-09-09T05:11:20;99367.13;;;20.92;100.00
3434;BME280;1730;41.932;25.548;2022-09-09T05:14:02;99376.37;;;21.35;100.00
3434;BME280;1730;41.932;25.548;2022-09-09T05:16:48;99356.62;;;21.76;100.00
3434;BME280;1730;41.932;25.548;2022-09-09T05:19:17;98838.25;;;18.69;100.00
3434;BME280;1730;41.932;25.548;2022-09-09T05:21:46;99353.69;;;21.96;100.00
3434;BME280;1730;41.932;25.548;2022-09-09T05:24:11;99347.59;;;22.12;100.00
3434;BME280;1730;41.932;25.548;2022-09-09T05:26:45;99347.00;;;22.28;100.00
3434;BME280;1730;41.932;25.548;2022-09-09T05:29:14;99349.06;;;22.33;100.00
3434;BME280;1730;41.932;25.548;2022-09-09T05:31:46;99354.78;;;22.31;100.00
3434;BME280;1730;41.932;25.548;2022-09-09T05:34:13;99273.41;;;22.78;100.00
3434;BME280;1730;41.932;25.548;2022-09-09T05:36:41;99364.09;;;22.85;100.00
3434;BME280;1730;41.932;25.548;2022-09-09T05:39:10;99380.97;;;23.71;100.00
3434;BME280;1730;41.932;25.548;2022-09-09T05:42:00;99169.38;;;22.04;100.00
3434;BME280;1730;41.932;25.548;2022-09-09T05:44:28;98692.41;;;19.19;100.00
3434;BME280;1730;41.932;25.548;2022-09-09T05:46:54;99351.28;;;24.43;100.00
3434;BME280;1730;41.932;25.548;2022-09-09T05:49:20;99349.03;;;24.68;100.00
3434;BME280;1730;41.932;25.548;2022-09-09T05:51:46;99353.59;;;24.63;100.00
3434;BME280;1730;41.932;25.548;2022-09-09T05:54:13;99355.09;;;24.42;100.00
3434;BME280;1730;41.932;25.548;2022-09-09T05:56:41;99354.16;;;24.48;100.00
3434;BME280;1730;41.932;25.548;2022-09-09T05:59:06;99357.38;;;24.10;100.00
3434;BME280;1730;41.932;25.548;2022-09-09T06:01:34;99355.22;;;24.01;100.00
3434;BME280;1730;41.932;25.548;2022-09-09T06:04:01;99356.66;;;23.57;100.00
3434;BME280;1730;41.932;25.548;2022-09-09T06:06:30;99309.44;;;23.42;100.00
3434;BME280;1730;41.932;25.548;2022-09-09T06:08:57;99355.59;;;23.69;100.00
3434;BME280;1730;41.932;25.548;2022-09-09T06:11:28;99359.31;;;23.98;100.00
3434;BME280;1730;41.932;25.548;2022-09-09T06:14:14;99351.16;;;24.38;100.00
3434;BME280;1730;41.932;25.548;2022-09-09T06:16:40;99362.88;;;24.45;100.00
3434;BME280;1730;41.932;25.548;2022-09-09T06:19:08;99362.53;;;24.82;100.00
3434;BME280;1730;41.932;25.548;2022-09-09T06:21:35;99363.84;;;24.51;100.00
3434;BME280;1730;41.932;25.548;2022-09-09T06:24:04;99371.94;;;24.69;100.00
3434;BME280;1730;41.932;25.548;2022-09-09T06:26:31;99370.94;;;24.75;100.00
3434;BME280;1730;41.932;25.548;2022-09-09T06:28:58;99364.78;;;25.41;100.00
3434;BME280;1730;41.932;25.548;2022-09-09T06:31:27;99365.59;;;24.68;100.00
3434;BME280;1730;41.932;25.548;2022-09-09T06:33:56;99365.50;;;24.52;100.00
3434;BME280;1730;41.932;25.548;2022-09-09T06:36:25;99354.03;;;23.97;100.00
3434;BME280;1730;41.932;25.548;2022-09-09T06:38:50;99359.91;;;24.23;100.00
3434;BME280;1730;41.932;25.548;2022-09-09T06:41:18;99361.25;;;25.74;100.00
3434;BME280;1730;41.932;25.548;2022-09-09T06:43:45;99355.97;;;25.56;100.00
3434;BME280;1730;41.932;25.548;2022-09-09T06:48:39;99360.37;;;24.95;100.00
3434;BME280;1730;41.932;25.548;2022-09-09T06:51:11;99353.09;;;25.06;100.00
3434;BME280;1730;41.932;25.548;2022-09-09T06:53:38;99359.44;;;24.38;100.00
3434;BME280;1730;41.932;25.548;2022-09-09T06:58:40;99359.84;;;24.58;100.00
3434;BME280;1730;41.932;25.548;2022-09-09T07:01:15;99341.09;;;24.32;100.00
3434;BME280;1730;41.932;25.548;2022-09-09T07:03:41;99269.22;;;23.41;100.00
3434;BME280;1730;41.932;25.548;2022-09-09T07:06:09;99347.81;;;24.01;100.00
3434;BME280;1730;41.932;25.548;2022-09-09T07:08:40;99352.34;;;23.84;100.00
3434;BME280;1730;41.932;25.548;2022-09-09T07:11:07;99358.47;;;23.51;100.00
3434;BME280;1730;41.932;25.548;2022-09-09T07:13:33;99330.31;;;23.49;100.00
3434;BME280;1730;41.932;25.548;2022-09-09T07:16:07;99359.78;;;23.84;100.00
3434;BME280;1730;41.932;25.548;2022-09-09T07:18:33;99354.16;;;24.02;100.00
3434;BME280;1730;41.932;25.548;2022-09-09T07:21:00;99347.81;;;24.88;100.00
3434;BME280;1730;41.932;25.548;2022-09-09T07:23:29;99348.81;;;25.27;100.00
3434;BME280;1730;41.932;25.548;2022-09-09T07:25:56;99347.34;;;24.79;100.00
3434;BME280;1730;41.932;25.548;2022-09-09T07:28:22;99362.94;;;24.74;100.00
3434;BME280;1730;41.932;25.548;2022-09-09T07:30:59;99355.97;;;24.71;100.00
3434;BME280;1730;41.932;25.548;2022-09-09T07:33:26;99348.06;;;24.23;100.00
3434;BME280;1730;41.932;25.548;2022-09-09T07:35:52;99342.16;;;24.31;100.00
3434;BME280;1730;41.932;25.548;2022-09-09T07:38:19;99346.88;;;24.19;100.00
3434;BME280;1730;41.932;25.548;2022-09-09T07:40:46;99309.75;;;24.61;100.00
3434;BME280;1730;41.932;25.548;2022-09-09T07:43:11;99309.06;;;25.28;100.00
3434;BME280;1730;41.932;25.548;2022-09-09T07:45:38;99354.84;;;26.07;100.00
3434;BME280;1730;41.932;25.548;2022-09-09T07:48:03;99361.00;;;25.59;100.00
3434;BME280;1730;41.932;25.548;2022-09-09T07:50:30;99321.47;;;25.58;100.00
3434;BME280;1730;41.932;25.548;2022-09-09T07:52:55;99361.78;;;25.43;100.00
3434;BME280;1730;41.932;25.548;2022-09-09T07:55:21;99369.41;;;26.02;100.00
3434;BME280;1730;41.932;25.548;2022-09-09T07:57:52;99356.72;;;25.68;100.00
3434;BME280;1730;41.932;25.548;2022-09-09T08:00:18;99359.44;;;25.51;100.00
3434;BME280;1730;41.932;25.548;2022-09-09T08:02:45;99350.56;;;25.49;100.00
3434;BME280;1730;41.932;25.548;2022-09-09T08:05:12;99368.81;;;25.34;100.00
3434;BME280;1730;41.932;25.548;2022-09-09T08:07:38;99362.44;;;25.33;100.00
3434;BME280;1730;41.932;25.548;2022-09-09T08:10:04;99365.62;;;25.70;100.00
3434;BME280;1730;41.932;25.548;2022-09-09T08:12:31;99339.16;;;25.74;100.00
3434;BME280;1730;41.932;25.548;2022-09-09T08:14:57;99355.69;;;26.08;100.00
3434;BME280;1730;41.932;25.548;2022-09-09T08:17:23;99342.28;;;25.99;100.00
3434;BME280;1730;41.932;25.548;2022-09-09T08:19:49;99340.41;;;25.67;100.00
3434;BME280;1730;41.932;25.548;2022-09-09T08:22:14;99341.09;;;26.29;100.00
3434;BME280;1730;41.932;25.548;2022-09-09T08:24:40;99341.00;;;27.11;92.97
3434;BME280;1730;41.932;25.548;2022-09-09T08:27:06;99313.94;;;26.91;91.93
3434;BME280;1730;41.932;25.548;2022-09-09T08:29:31;99306.72;;;27.17;89.58
3434;BME280;1730;41.932;25.548;2022-09-09T08:31:57;99308.09;;;27.78;84.09
3434;BME280;1730;41.932;25.548;2022-09-09T08:34:24;99311.38;;;27.43;84.34
3434;BME280;1730;41.932;25.548;2022-09-09T08:36:54;99311.53;;;27.26;86.07
3434;BME280;1730;41.932;25.548;2022-09-09T08:39:21;99244.69;;;26.64;90.04
3434;BME280;1730;41.932;25.548;2022-09-09T08:52:36;99297.38;;;27.50;86.90
3434;BME280;1730;41.932;25.548;2022-09-09T08:57:58;99271.78;;;28.21;80.93
3434;BME280;1730;41.932;25.548;2022-09-09T09:00:40;99276.28;;;27.86;83.36
3434;BME280;1730;41.932;25.548;2022-09-09T09:08:51;99251.38;;;28.53;74.09
3434;BME280;1730;41.932;25.548;2022-09-09T09:11:19;99264.09;;;28.39;75.06
3434;BME280;1730;41.932;25.548;2022-09-09T09:14:01;99262.72;;;28.41;75.05
3434;BME280;1730;41.932;25.548;2022-09-09T09:16:55;99264.56;;;28.83;71.56
3434;BME280;1730;41.932;25.548;2022-09-09T09:19:22;99251.41;;;28.63;70.34
3434;BME280;1730;41.932;25.548;2022-09-09T09:24:28;99247.25;;;27.98;71.79
3434;BME280;1730;41.932;25.548;2022-09-09T09:26:59;99240.94;;;28.13;72.10
3434;BME280;1730;41.932;25.548;2022-09-09T09:29:32;99246.63;;;27.86;74.77
3434;BME280;1730;41.932;25.548;2022-09-09T09:32:01;99231.00;;;28.22;71.14
3434;BME280;1730;41.932;25.548;2022-09-09T09:34:27;99225.19;;;28.23;69.69
3434;BME280;1730;41.932;25.548;2022-09-09T09:36:56;99227.59;;;28.72;68.26
3434;BME280;1730;41.932;25.548;2022-09-09T09:39:25;99230.94;;;29.09;65.67
3434;BME280;1730;41.932;25.548;2022-09-09T09:41:51;99234.28;;;28.86;65.75
3434;BME280;1730;41.932;25.548;2022-09-09T09:44:35;99232.25;;;28.61;65.06
3434;BME280;1730;41.932;25.548;2022-09-09T09:47:12;99222.38;;;28.96;63.46
3434;BME280;1730;41.932;25.548;2022-09-09T09:49:39;99230.13;;;28.99;62.71
3434;BME280;1730;41.932;25.548;2022-09-09T09:52:06;99223.75;;;28.98;60.28
3434;BME280;1730;41.932;25.548;2022-09-09T09:54:37;99224.00;;;28.97;62.74
3434;BME280;1730;41.932;25.548;2022-09-09T09:57:14;99207.38;;;29.22;58.10
3434;BME280;1730;41.932;25.548;2022-09-09T09:59:41;99215.41;;;28.93;59.58
3434;BME280;1730;41.932;25.548;2022-09-09T10:04:39;99217.34;;;29.53;55.71
3434;BME280;1730;41.932;25.548;2022-09-09T10:07:30;99190.09;;;29.61;55.38
3434;BME280;1730;41.932;25.548;2022-09-09T10:09:57;99206.34;;;30.23;53.17
3434;BME280;1730;41.932;25.548;2022-09-09T10:12:37;99191.44;;;29.78;50.74
3434;BME280;1730;41.932;25.548;2022-09-09T10:20:45;99192.25;;;29.94;49.67
3434;BME280;1730;41.932;25.548;2022-09-09T10:26:39;99177.59;;;29.58;49.19
3434;BME280;1730;41.932;25.548;2022-09-09T10:34:06;99181.72;;;29.71;48.78
3434;BME280;1730;41.932;25.548;2022-09-09T10:36:45;99148.66;;;29.69;51.44
3434;BME280;1730;41.932;25.548;2022-09-09T10:42:05;99174.38;;;30.64;48.77
3434;BME280;1730;41.932;25.548;2022-09-09T10:45:40;99171.84;;;30.68;45.38
3434;BME280;1730;41.932;25.548;2022-09-09T10:47:39;99175.72;;;30.72;47.51
3434;BME280;1730;41.932;25.548;2022-09-09T10:50:27;99160.38;;;30.79;44.61
3434;BME280;1730;41.932;25.548;2022-09-09T10:53:09;99137.59;;;30.67;45.62
3434;BME280;1730;41.932;25.548;2022-09-09T10:55:41;99145.81;;;30.87;43.95
3434;BME280;1730;41.932;25.548;2022-09-09T10:58:14;99157.69;;;31.32;43.95
3434;BME280;1730;41.932;25.548;2022-09-09T11:00:44;99133.38;;;30.75;43.74
3434;BME280;1730;41.932;25.548;2022-09-09T11:03:22;99138.47;;;31.02;43.69
3434;BME280;1730;41.932;25.548;2022-09-09T11:05:54;99141.28;;;31.02;43.79
3434;BME280;1730;41.932;25.548;2022-09-09T11:08:26;99120.75;;;30.87;43.73
3434;BME280;1730;41.932;25.548;2022-09-09T11:19:18;99108.28;;;31.14;44.12
3434;BME280;1730;41.932;25.548;2022-09-09T11:21:48;99119.97;;;30.77;44.80
3434;BME280;1730;41.932;25.548;2022-09-09T11:24:38;99101.06;;;31.08;44.20
3434;BME280;1730;41.932;25.548;2022-09-09T11:27:21;99105.12;;;31.20;43.46
3434;BME280;1730;41.932;25.548;2022-09-09T11:30:20;99113.56;;;31.39;43.72
3434;BME280;1730;41.932;25.548;2022-09-09T11:38:32;99098.47;;;31.93;42.29
3434;BME280;1730;41.932;25.548;2022-09-09T11:41:07;99100.38;;;31.73;42.18
3434;BME280;1730;41.932;25.548;2022-09-09T11:43:44;99093.78;;;31.64;42.38
3434;BME280;1730;41.932;25.548;2022-09-09T11:46:11;99095.44;;;31.65;42.69
3434;BME280;1730;41.932;25.548;2022-09-09T11:48:42;99089.09;;;31.36;43.11
3434;BME280;1730;41.932;25.548;2022-09-09T11:53:51;99086.37;;;31.79;42.63
3434;BME280;1730;41.932;25.548;2022-09-09T11:58:59;99084.72;;;31.96;42.31
3434;BME280;1730;41.932;25.548;2022-09-09T12:01:38;99067.28;;;32.28;41.72
3434;BME280;1730;41.932;25.548;2022-09-09T12:06:31;99070.59;;;32.11;41.71
3434;BME280;1730;41.932;25.548;2022-09-09T12:11:38;99056.16;;;32.04;41.99
3434;BME280;1730;41.932;25.548;2022-09-09T12:14:04;99056.13;;;32.28;41.62
3434;BME280;1730;41.932;25.548;2022-09-09T12:19:24;99034.88;;;32.46;41.34
3434;BME280;1730;41.932;25.548;2022-09-09T12:22:05;99043.34;;;32.22;41.05
3434;BME280;1730;41.932;25.548;2022-09-09T12:27:21;99028.41;;;32.32;40.88
3434;BME280;1730;41.932;25.548;2022-09-09T12:30:09;99009.53;;;32.42;40.49
3434;BME280;1730;41.932;25.548;2022-09-09T12:32:36;99021.91;;;32.36;41.02
3434;BME280;1730;41.932;25.548;2022-09-09T12:35:07;99017.78;;;32.34;41.03
3434;BME280;1730;41.932;25.548;2022-09-09T12:40:06;99014.66;;;32.54;40.98
3434;BME280;1730;41.932;25.548;2022-09-09T12:42:41;99014.94;;;32.52;40.52
3434;BME280;1730;41.932;25.548;2022-09-09T12:45:25;98996.66;;;32.28;40.54
3434;BME280;1730;41.932;25.548;2022-09-09T12:48:03;99009.22;;;32.62;41.15
3434;BME280;1730;41.932;25.548;2022-09-09T12:50:33;99006.75;;;32.75;39.92
3434;BME280;1730;41.932;25.548;2022-09-09T12:53:27;99001.87;;;32.67;40.23
3434;BME280;1730;41.932;25.548;2022-09-09T12:56:04;98996.44;;;32.56;41.13
3434;BME280;1730;41.932;25.548;2022-09-09T12:58:33;99004.88;;;32.70;41.48
3434;BME280;1730;41.932;25.548;2022-09-09T13:01:01;98982.13;;;32.63;40.04
3434;BME280;1730;41.932;25.548;2022-09-09T13:03:31;98893.06;;;32.29;40.29
3434;BME280;1730;41.932;25.548;2022-09-09T13:05:59;98965.16;;;32.87;40.48
3434;BME280;1730;41.932;25.548;2022-09-09T13:08:27;98967.06;;;32.78;40.23
3434;BME280;1730;41.932;25.548;2022-09-09T13:10:57;98980.50;;;32.89;41.05
3434;BME280;1730;41.932;25.548;2022-09-09T13:13:31;98948.31;;;33.05;39.74
3434;BME280;1730;41.932;25.548;2022-09-09T13:16:00;98972.63;;;33.05;40.99
3434;BME280;1730;41.932;25.548;2022-09-09T13:18:29;98930.31;;;32.84;40.07
3434;BME280;1730;41.932;25.548;2022-09-09T13:20:55;98955.28;;;33.08;39.96
3434;BME280;1730;41.932;25.548;2022-09-09T13:23:27;98956.31;;;33.12;39.25
3434;BME280;1730;41.932;25.548;2022-09-09T13:25:59;98966.00;;;32.87;40.57
3434;BME280;1730;41.932;25.548;2022-09-09T13:28:27;98953.28;;;32.81;40.14
3434;BME280;1730;41.932;25.548;2022-09-09T13:31:01;98955.44;;;32.84;40.18
3434;BME280;1730;41.932;25.548;2022-09-09T13:33:32;98893.78;;;32.35;40.29
3434;BME280;1730;41.932;25.548;2022-09-09T13:36:04;98942.91;;;32.68;41.15
3434;BME280;1730;41.932;25.548;2022-09-09T13:38:37;98944.19;;;32.57;40.72
3434;BME280;1730;41.932;25.548;2022-09-09T13:41:06;98949.44;;;32.77;40.81
3434;BME280;1730;41.932;25.548;2022-09-09T13:43:38;98943.63;;;32.74;40.70
3434;BME280;1730;41.932;25.548;2022-09-09T13:51:41;98954.72;;;32.92;41.23
3434;BME280;1730;41.932;25.548;2022-09-09T13:54:11;98952.78;;;33.06;40.54
3434;BME280;1730;41.932;25.548;2022-09-09T13:56:38;98873.28;;;32.72;40.21
3434;BME280;1730;41.932;25.548;2022-09-09T13:59:09;98947.81;;;32.90;40.63
3434;BME280;1730;41.932;25.548;2022-09-09T14:01:36;98942.00;;;32.86;40.64
3434;BME280;1730;41.932;25.548;2022-09-09T14:04:03;98938.91;;;33.01;40.53
3434;BME280;1730;41.932;25.548;2022-09-09T14:06:29;98939.31;;;32.95;40.86
3434;BME280;1730;41.932;25.548;2022-09-09T14:08:55;98940.25;;;32.90;40.84
3434;BME280;1730;41.932;25.548;2022-09-09T14:11:21;98931.97;;;32.85;41.02
3434;BME280;1730;41.932;25.548;2022-09-09T14:13:47;98931.22;;;32.80;41.28
3434;BME280;1730;41.932;25.548;2022-09-09T14:16:16;98909.81;;;32.89;41.21
3434;BME280;1730;41.932;25.548;2022-09-09T14:18:43;98920.69;;;32.77;42.26
3434;BME280;1730;41.932;25.548;2022-09-09T14:21:09;98921.09;;;32.84;43.21
3434;BME280;1730;41.932;25.548;2022-09-09T14:23:35;98922.44;;;32.73;42.32
3434;BME280;1730;41.932;25.548;2022-09-09T14:26:01;98925.56;;;32.98;42.58
3434;BME280;1730;41.932;25.548;2022-09-09T14:28:27;98915.31;;;32.94;42.95
3434;BME280;1730;41.932;25.548;2022-09-09T14:30:53;98856.00;;;32.56;41.97
3434;BME280;1730;41.932;25.548;2022-09-09T14:33:19;98893.47;;;32.69;42.69
3434;BME280;1730;41.932;25.548;2022-09-09T14:35:44;98894.69;;;32.62;42.34
3434;BME280;1730;41.932;25.548;2022-09-09T14:38:10;98912.91;;;32.74;42.54
3434;BME280;1730;41.932;25.548;2022-09-09T14:40:37;98913.13;;;32.77;42.60
3434;BME280;1730;41.932;25.548;2022-09-09T14:43:04;98892.38;;;32.51;43.06
3434;BME280;1730;41.932;25.548;2022-09-09T14:45:30;98907.09;;;32.70;43.03
3434;BME280;1730;41.932;25.548;2022-09-09T14:47:56;98901.38;;;32.61;43.81
3434;BME280;1730;41.932;25.548;2022-09-09T14:50:22;98895.09;;;32.70;43.05
3434;BME280;1730;41.932;25.548;2022-09-09T14:52:49;98899.84;;;32.55;43.28
3434;BME280;1730;41.932;25.548;2022-09-09T14:55:16;98785.19;;;31.73;43.97
3434;BME280;1730;41.932;25.548;2022-09-09T14:57:42;98899.09;;;32.50;43.62
3434;BME280;1730;41.932;25.548;2022-09-09T15:00:09;98894.94;;;32.47;43.00
3434;BME280;1730;41.932;25.548;2022-09-09T15:02:35;98893.19;;;32.38;42.60
3434;BME280;1730;41.932;25.548;2022-09-09T15:05:00;98852.09;;;32.11;42.78
3434;BME280;1730;41.932;25.548;2022-09-09T15:07:27;98890.25;;;32.15;44.91
3434;BME280;1730;41.932;25.548;2022-09-09T15:09:54;98892.53;;;32.27;44.83
3434;BME280;1730;41.932;25.548;2022-09-09T15:12:20;98886.44;;;32.25;45.48
3434;BME280;1730;41.932;25.548;2022-09-09T15:14:47;98870.63;;;32.02;45.86
3434;BME280;1730;41.932;25.548;2022-09-09T15:17:13;98876.38;;;31.92;45.96
3434;BME280;1730;41.932;25.548;2022-09-09T15:19:39;98893.34;;;31.95;46.35
3434;BME280;1730;41.932;25.548;2022-09-09T15:22:05;98895.69;;;31.88;46.92
3434;BME280;1730;41.932;25.548;2022-09-09T15:24:32;98896.94;;;31.63;47.03
3434;BME280;1730;41.932;25.548;2022-09-09T15:26:58;98891.03;;;31.65;47.05
3434;BME280;1730;41.932;25.548;2022-09-09T15:29:24;98891.53;;;31.48;47.55
3434;BME280;1730;41.932;25.548;2022-09-09T15:31:50;98863.44;;;31.45;47.82
3434;BME280;1730;41.932;25.548;2022-09-09T15:34:15;98784.84;;;30.86;48.01
3434;BME280;1730;41.932;25.548;2022-09-09T15:36:43;98671.75;;;30.06;48.36
3434;BME280;1730;41.932;25.548;2022-09-09T15:39:11;98902.75;;;31.43;48.48
3434;BME280;1730;41.932;25.548;2022-09-09T15:41:38;98894.19;;;31.40;49.23
3434;BME280;1730;41.932;25.548;2022-09-09T15:44:04;98895.06;;;31.35;48.87